createdAt,value
2018-05-21T00:03:59.048Z,69.10
2018-05-21T00:09:02.201Z,69.10
2018-05-21T00:14:04.772Z,69.20
2018-05-21T00:19:07.583Z,69.00
2018-05-21T00:24:10.172Z,69.60
2018-05-21T00:29:15.416Z,69.70
2018-05-21T00:34:18.452Z,69.50
2018-05-21T00:39:21.257Z,70.90
2018-05-21T00:44:23.843Z,69.50
2018-05-21T00:49:27.032Z,70.30
2018-05-21T00:54:29.592Z,73.30
2018-05-21T00:59:32.927Z,70.80
2018-05-21T01:04:35.777Z,70.80
2018-05-21T01:09:40.907Z,70.70
2018-05-21T01:14:46.277Z,71.30
2018-05-21T01:19:48.859Z,71.30
2018-05-21T01:24:51.909Z,71.00
2018-05-21T01:29:54.937Z,70.80
2018-05-21T01:34:58.122Z,70.80
2018-05-21T01:40:02.440Z,71.00
2018-05-21T01:45:11.590Z,71.10
2018-05-21T01:50:14.741Z,70.60
2018-05-21T01:55:17.328Z,70.90
2018-05-21T02:00:19.925Z,70.90
2018-05-21T02:05:23.075Z,70.80
2018-05-21T02:10:26.421Z,71.60
2018-05-21T02:15:28.998Z,71.60
2018-05-21T02:20:32.363Z,72.20
2018-05-21T02:30:45.493Z,70.50
2018-05-21T02:35:51.533Z,71.30
2018-05-21T02:40:54.167Z,71.20
2018-05-21T02:45:58.111Z,73.20
2018-05-21T02:51:00.805Z,73.20
2018-05-21T02:56:04.150Z,73.70
2018-05-21T03:01:06.732Z,73.70
2018-05-21T03:06:09.285Z,74.20
2018-05-21T03:11:12.463Z,74.30
2018-05-21T03:16:15.614Z,73.80
2018-05-21T03:21:18.530Z,74.20
2018-05-21T03:26:21.908Z,76.20
2018-05-21T03:31:24.471Z,76.20
2018-05-21T03:36:27.050Z,76.00
2018-05-21T03:41:30.388Z,74.60
2018-05-21T03:46:32.963Z,74.60
2018-05-21T03:51:36.381Z,77.70
2018-05-21T03:56:40.014Z,77.60
2018-05-21T04:01:54.349Z,77.50
2018-05-21T04:06:57.742Z,74.80
2018-05-21T04:12:00.462Z,75.10
2018-05-21T04:17:02.949Z,74.90
2018-05-21T04:22:05.548Z,73.20
2018-05-21T04:27:08.109Z,73.20
2018-05-21T04:32:10.700Z,73.40
2018-05-21T04:37:13.281Z,73.30
2018-05-21T04:42:17.076Z,74.80
2018-05-21T04:47:19.665Z,74.80
2018-05-21T04:52:22.616Z,74.50
2018-05-21T04:57:25.970Z,74.80
2018-05-21T05:02:35.913Z,74.80
2018-05-21T05:07:39.253Z,74.90
2018-05-21T05:12:42.031Z,74.90
2018-05-21T05:17:46.590Z,76.70
2018-05-21T05:22:49.188Z,76.70
2018-05-21T05:27:54.480Z,76.70
2018-05-21T05:32:59.528Z,77.50
2018-05-21T05:38:06.094Z,77.80
2018-05-21T05:43:09.152Z,77.20
2018-05-21T05:48:12.049Z,76.50
2018-05-21T05:53:17.317Z,76.50
2018-05-21T05:58:20.470Z,76.20
2018-05-21T06:03:23.816Z,75.70
2018-05-21T06:08:26.388Z,75.70
2018-05-21T06:13:30.898Z,74.30
2018-05-21T06:18:33.515Z,74.20
2018-05-21T06:23:36.855Z,71.80
2018-05-21T06:28:39.422Z,71.80
2018-05-21T06:33:42.767Z,71.00
2018-05-21T06:38:45.773Z,71.00
2018-05-21T06:43:48.721Z,70.00
2018-05-21T06:48:51.969Z,69.80
2018-05-21T06:53:54.519Z,70.90
2018-05-21T06:58:57.085Z,70.40
2018-05-21T07:04:00.535Z,72.10
2018-05-21T07:09:03.452Z,69.70
2018-05-21T07:14:06.021Z,68.10
2018-05-21T07:19:08.613Z,66.60
2018-05-21T07:24:12.036Z,64.30
2018-05-21T07:29:14.602Z,64.10
2018-05-21T07:34:17.980Z,64.50
2018-05-21T07:39:20.880Z,64.50
2018-05-21T07:44:25.943Z,62.40
2018-05-21T07:49:28.518Z,62.20
2018-05-21T07:54:31.609Z,63.90
2018-05-21T07:59:34.201Z,65.30
2018-05-21T08:04:37.995Z,64.30
2018-05-21T08:09:40.923Z,64.30
2018-05-21T08:14:44.611Z,64.00
2018-05-21T08:19:47.365Z,63.90
2018-05-21T08:24:50.849Z,63.60
2018-05-21T08:29:53.907Z,62.30
2018-05-21T08:34:57.043Z,62.20
2018-05-21T08:39:59.649Z,62.70
2018-05-21T08:45:02.674Z,62.30
2018-05-21T08:50:06.025Z,60.90
2018-05-21T08:55:10.392Z,60.90
2018-05-21T09:00:14.165Z,59.50
2018-05-21T09:05:17.772Z,59.00
2018-05-21T09:10:20.402Z,58.70
2018-05-21T09:15:24.675Z,60.00
2018-05-21T09:20:27.288Z,59.90
2018-05-21T09:25:30.445Z,59.00
2018-05-21T09:30:35.978Z,56.50
2018-05-21T09:35:38.563Z,56.50
2018-05-21T09:40:41.636Z,56.50
2018-05-21T09:45:44.804Z,55.40
2018-05-21T09:50:47.714Z,55.60
2018-05-21T09:55:51.061Z,54.80
2018-05-21T10:00:55.578Z,53.80
2018-05-21T10:05:58.200Z,53.20
2018-05-21T10:11:02.783Z,53.00
2018-05-21T10:16:05.369Z,53.00
2018-05-21T10:21:08.823Z,53.30
2018-05-21T10:26:11.503Z,52.60
2018-05-21T10:31:14.005Z,52.10
2018-05-21T10:36:16.758Z,52.40
2018-05-21T10:41:20.089Z,53.00
2018-05-21T10:46:22.680Z,52.90
2018-05-21T10:51:25.863Z,52.10
2018-05-21T10:56:31.537Z,50.80
2018-05-21T11:01:38.247Z,50.70
2018-05-21T11:06:41.121Z,50.90
2018-05-21T11:11:47.040Z,50.00
2018-05-21T11:16:51.491Z,46.90
2018-05-21T11:21:54.400Z,46.90
2018-05-21T11:26:56.987Z,46.50
2018-05-21T11:32:00.418Z,46.20
2018-05-21T11:37:03.372Z,46.20
2018-05-21T11:42:06.230Z,46.10
2018-05-21T11:47:10.095Z,43.90
2018-05-21T11:52:13.798Z,44.10
2018-05-21T11:57:16.374Z,44.00
2018-05-21T12:02:18.960Z,43.80
2018-05-21T12:07:24.200Z,42.10
2018-05-21T12:12:26.776Z,39.90
2018-05-21T12:17:29.993Z,37.90
2018-05-21T12:22:32.555Z,38.80
2018-05-21T12:27:36.066Z,38.10
2018-05-21T12:32:45.400Z,37.80
2018-05-21T12:37:49.038Z,36.90
2018-05-21T12:42:51.621Z,36.90
2018-05-21T12:47:55.037Z,35.20
2018-05-21T12:52:58.411Z,30.80
2018-05-21T12:58:04.229Z,30.80
2018-05-21T13:03:07.565Z,31.10
2018-05-21T13:08:10.155Z,31.10
2018-05-21T13:13:13.049Z,30.00
2018-05-21T13:18:16.600Z,27.90
2018-05-21T13:23:19.198Z,27.80
2018-05-21T13:28:25.040Z,23.80
2018-05-21T13:33:28.162Z,26.60
2018-05-21T13:38:37.545Z,22.70
2018-05-21T13:43:40.131Z,22.70
2018-05-21T13:48:49.051Z,21.90
2018-05-21T13:53:52.380Z,24.10
2018-05-21T13:58:56.209Z,24.00
2018-05-21T14:03:59.440Z,23.30
2018-05-21T14:09:02.612Z,22.60
2018-05-21T14:14:05.203Z,22.90
2018-05-21T14:24:38.038Z,21.50
2018-05-21T14:29:41.459Z,22.50
2018-05-21T14:34:45.320Z,21.50
2018-05-21T14:39:47.904Z,22.20
2018-05-21T14:44:51.261Z,21.20
2018-05-21T14:49:54.438Z,21.20
2018-05-21T14:54:58.363Z,21.10
2018-05-21T15:00:01.054Z,21.10
2018-05-21T15:05:06.802Z,20.30
2018-05-21T15:15:21.503Z,21.20
2018-05-21T15:20:24.177Z,20.20
2018-05-21T15:25:27.869Z,20.70
2018-05-21T15:30:30.593Z,19.50
2018-05-21T15:35:33.781Z,20.50
2018-05-21T15:40:38.996Z,20.30
2018-05-21T15:45:41.877Z,20.90
2018-05-21T15:50:44.941Z,20.10
2018-05-21T15:55:47.796Z,19.60
2018-05-21T16:00:50.403Z,20.50
2018-05-21T16:05:52.993Z,20.90
2018-05-21T16:10:55.852Z,22.50
2018-05-21T16:15:58.884Z,22.70
2018-05-21T16:21:02.237Z,23.10
2018-05-21T16:26:04.840Z,23.10
2018-05-21T16:31:07.870Z,23.30
2018-05-21T16:36:10.817Z,23.90
2018-05-21T16:41:14.823Z,23.90
2018-05-21T16:46:17.456Z,23.90
2018-05-21T16:51:26.668Z,24.50
2018-05-21T16:56:30.085Z,24.90
2018-05-21T17:01:32.684Z,25.60
2018-05-21T17:06:35.265Z,27.80
2018-05-21T17:11:37.854Z,29.90
2018-05-21T17:16:40.457Z,31.50
2018-05-21T17:21:43.056Z,32.20
2018-05-21T17:26:46.286Z,31.50
2018-05-21T17:31:48.869Z,32.90
2018-05-21T17:36:51.443Z,32.20
2018-05-21T17:41:54.122Z,32.30
2018-05-21T17:46:58.650Z,33.10
2018-05-21T17:52:02.632Z,35.80
2018-05-21T17:57:05.205Z,35.80
2018-05-21T18:02:10.671Z,36.30
2018-05-21T18:07:13.563Z,36.50
2018-05-21T18:12:19.544Z,37.10
2018-05-21T18:17:23.467Z,38.70
2018-05-21T18:22:27.825Z,39.40
2018-05-21T18:27:30.408Z,39.40
2018-05-21T18:32:34.365Z,40.50
2018-05-21T18:37:36.966Z,40.50
2018-05-21T18:42:39.588Z,40.80
2018-05-21T18:47:43.326Z,41.10
2018-05-21T18:52:45.896Z,41.50
2018-05-21T18:57:48.770Z,42.20
2018-05-21T19:02:52.603Z,42.30
2018-05-21T19:07:55.197Z,42.20
2018-05-21T19:12:59.199Z,42.40
2018-05-21T19:18:01.804Z,42.30
2018-05-21T19:23:04.390Z,42.60
2018-05-21T19:28:07.624Z,43.20
2018-05-21T19:33:11.178Z,42.80
2018-05-21T19:38:14.913Z,42.80
2018-05-21T19:43:20.622Z,42.80
2018-05-21T19:48:25.857Z,42.60
2018-05-21T19:53:28.444Z,42.50
2018-05-21T19:58:31.018Z,42.30
2018-05-21T20:03:35.653Z,42.30
2018-05-21T20:08:43.218Z,41.90
2018-05-21T20:13:46.837Z,41.90
2018-05-21T20:18:50.041Z,42.70
2018-05-21T20:23:52.651Z,42.50
2018-05-21T20:28:55.923Z,43.50
2018-05-21T20:33:59.047Z,43.90
2018-05-21T20:39:01.614Z,43.20
2018-05-21T20:44:06.346Z,45.40
2018-05-21T20:49:09.730Z,45.20
2018-05-21T20:54:14.933Z,45.90
2018-05-21T20:59:17.535Z,45.70
2018-05-21T21:04:21.341Z,46.00
2018-05-21T21:09:24.818Z,45.80
2018-05-21T21:14:28.077Z,47.90
2018-05-21T21:19:31.422Z,48.30
2018-05-21T21:24:35.205Z,49.20
2018-05-21T21:29:38.549Z,49.20
2018-05-21T21:34:43.032Z,50.00
2018-05-21T21:39:45.613Z,50.00
2018-05-21T21:44:49.508Z,50.70
2018-05-21T21:49:52.092Z,50.70
2018-05-21T21:54:54.701Z,50.70
2018-05-21T21:59:57.286Z,53.00
2018-05-21T22:05:00.539Z,53.20
2018-05-21T22:10:03.884Z,53.90
2018-05-21T22:15:07.082Z,53.90
2018-05-21T22:20:09.653Z,54.00
2018-05-21T22:25:12.248Z,54.20
2018-05-21T22:30:14.818Z,55.40
2018-05-21T22:35:17.384Z,55.10
2018-05-21T22:40:19.964Z,55.50
2018-05-21T22:45:23.306Z,56.10
2018-05-21T22:50:29.000Z,56.10
2018-05-21T22:55:32.285Z,56.30
2018-05-21T23:00:35.492Z,56.40
2018-05-21T23:05:39.028Z,56.50
2018-05-21T23:10:42.255Z,56.60
2018-05-21T23:15:44.803Z,57.00
2018-05-21T23:20:48.373Z,57.90
2018-05-21T23:25:52.109Z,57.90
2018-05-21T23:30:56.521Z,58.80
2018-05-21T23:35:59.644Z,59.00
2018-05-21T23:41:02.204Z,59.60
2018-05-21T23:46:08.180Z,60.20
2018-05-21T23:51:12.293Z,60.00
2018-05-21T23:56:22.052Z,60.30
